KCSQ

Creston Municipal Airport

Creston, Iowa, USA
METAR KCSQ 191615Z AUTO 36018G25KT 2 1/2SM -SN BKN025 BKN030 OVC044 M13/M15 A3025 RMK AO2
Observed Flight Rules
Jan-19 @ 16:15 UTC (25 minutes ago) Instrument Flight Rules
Wind Visibility Clouds Conditions
360° at 18 knots
 Gusting to 25 knots
2 1/2 miles
  • Broken at 2,500' AGL
  • Broken at 3,000' AGL
  • Overcast at 4,400' AGL
  • Light Snow
Temperatures Readings
Current -13°C / 9°F
Dewpoint -15°C / 5°F
Humidity 85%
Altimeter 30.25" Hg
Pressure 1024.42 hPa
Elevation 394
METAR KCSQ 191615Z AUTO 36018G25KT 2 1/2SM -SN BKN025 BKN030 OVC044 M13/M15 A3025 RMK AO2
Observed Flight Rules
Jan-19 @ 16:15 UTC
(25 minutes ago)
IFR
Wind Visibility
360° at 18 knots
 Gusting to 25 knots
2 1/2 miles
Clouds
  • Broken at 2,500' AGL
  • Broken at 3,000' AGL
  • Overcast at 4,400' AGL
Conditions
  • Light Snow
Temperature Dewpoint
-13°C / 9°F -15°C / 5°F
Humidity Altimeter Pressure
85% 30.25" Hg 1024.42 hPa